Pays
Station

 

Conditions  météo  pour  El Salvador Intl. Airport/Comalapa  -  El Salvador    El Salvador

  
26 °C
    
 
 

METAR pour El Salvador Intl. Airport/Comalapa :

MSLP 230550Z 35004KT 310V020 9999 FEW077 26/20 Q1013 A2992 NOSIG

 

Voici le bulletin pour El Salvador Intl. Airport/Comalapa - El Salvador.
 
Le bulletin a été fait il y a 40 minutes, à 05:50 UTC .
Le vent soufflait à la vitesse de 2.1 mètres par seconde de Nord (350°), variant entre Nord-ouest (310°) et Nord/Nord-est (020°).
 
La température était de 26 °C, avec un point de rosée à 20 °C.
La température ressentie était de 27 °C.
 
La pression atmosphérique était de 1013 hPa.
L'humidité relative était de 69.6%.
 
Il y avait 1 à 2/8ème de nébulosité à une hauteur de 2347 mètres.
 
La visibilité globale était de supérieure à 10 kilomètres.
 

 
 
 

Pays :   A   B   C   D   E   F   G   H   I   J   K   L   M   N   O   P   Q   R   S   T   U   V   W   Y   Z

 

Partenaires :  Info Météo avec Met'info
Météo Marine avec MeteoMarine.net
Infos Site  |  Infos Légales  |  Crédits  |  Confidentialité
Contactez-nous  |  Ajouter aux favoris
© 2013-2019 METAR - Tous droits réservés